Tiempo atmosférico en la estación meteorológica de Quintanar De La Orden, Toledo (691 m.)



Fecha
DESCASC
Temp. máxima en grados centígrados (hora)
DESCASC
Temp. mínima en grados centígrados (hora)
DESCASC
Temp. media en grados centígrados
DESCASC
Racha de viento máxima en m/sg (hora)
DESCASC
Velocidad máxima media en intervalos de 10 minutos(hora)
DESCASC
Precipitaciones diarias en mm
DESCASC
Precipitaciones de 00:00 a 06:00 en mm
DESCASC
Precipitaciones de 06:00 a 12:00 en mm
DESCASC
Precipitaciones de 12:00 a 18:00 en mm
DESCASC
Precipitaciones de 18:00 a 24:00 en mm
DESCASC
08-12-2019 8.1 (19:00) 3.5 (02:00) 5.8 3.06 (12:20) 1.39 (09:20) 0.6 0.1 0.1 0 0.4
07-12-2019 13.5 (16:30) 2.6 (08:20) 8 4.72 (01:50) 2.78 (01:20) 0 0 0 0 0
06-12-2019 13.2 (16:00) 4.1 (08:30) 8.6 6.39 (12:40) 2.78 (12:40) 0 0 0 0 0
05-12-2019 14.4 (15:20) 4.8 (00:00) 9.6 7.5 (11:00) 4.17 (10:30) 0.3 0.2 0 0.1 0
04-12-2019 9.5 (16:00) 5.8 (07:00) 7.7 6.94 (17:10) 3.89 (17:10) 5.5 1.9 3.5 0.1 0
03-12-2019 11.2 (13:00) 4.4 (00:00) 7.8 7.5 (12:50) 3.06 (05:40) 0.1 0.1 0 0 0
02-12-2019 10.8 (15:50) 5.8 (00:00) 8.3 6.39 (12:30) 3.06 (11:50) 4.8 2.8 1.7 0.3 0
01-12-2019 10.7 (16:00) 5.9 (00:00) 8.3 6.67 (15:30) 3.61 (15:00) 2.7 1.9 0.1 0 0.7
30-11-2019 15.1 (14:00) 9.7 (00:00) 12.4 10.56 (23:10) 7.22 (23:10) 0 0 0 0 0
29-11-2019 13.1 (16:20) 8.3 (00:00) 10.7 7.22 (16:10) 4.72 (13:00) 0.1 0 0 0.1 0
28-11-2019 11.3 (15:10) 4.7 (05:50) 8 8.33 (16:00) 5.83 (16:00) 0.2 0 0 0.1 0.1
27-11-2019 12.8 (15:30) 6.8 (00:00) 9.8 13.89 (21:30) 6.11 (00:10) 0.6 0 0.1 0.4 0.1
26-11-2019 14.3 (14:20) 9.5 (00:00) 11.9 11.11 (20:50) 7.78 (20:40) 0.3 0 0 0 0.3
25-11-2019 14.3 (15:30) 6.7 (00:00) 10.5 11.94 (04:10) 5.56 (06:40) 0.4 0.2 0.1 0.1 0
24-11-2019 11 (16:00) 2.3 (00:00) 6.6 7.5 (12:40) 3.89 (01:50) 0 0 0 0 0
23-11-2019 11.5 (16:00) 4.7 (00:00) 8.1 23.61 (13:40) 6.67 (13:40) 0.9 0.9 0 0 0
22-11-2019 12.5 (17:10) 6.9 (00:00) 9.7 11.39 (16:30) 6.39 (16:20) 4.1 0.1 0.8 3.2 0
21-11-2019 9.8 (17:00) 5.7 (00:00) 7.8 5.83 (10:40) 3.61 (10:40) 3.2 0.1 0.1 3 0
20-11-2019 10 (13:30) 2.4 (07:10) 6.2 9.17 (15:20) 5.83 (15:20) 1.5 0 0 0.9 0.6
19-11-2019 10.8 (14:50) -0.5 (-00:0) 5.2 4.72 (14:10) 2.5 (16:30) 0 0 0 0 0
18-11-2019 10.7 (14:20) 2.3 (00:00) 6.5 9.72 (13:30) 5.28 (15:30) 0 0 0 0 0
17-11-2019 7.4 (18:20) 0 (00:00) 3.7 10.28 (15:20) 6.67 (15:20) 8.8 0 0 0 8.8
16-11-2019 9.6 (15:00) 0.7 (00:00) 5.2 6.67 (14:30) 3.61 (14:10) 0 0 0 0 0
15-11-2019 8.3 (15:50) 2.5 (00:00) 5.4 8.61 (14:50) 4.17 (10:20) 0.5 0.1 0.2 0.2 0
14-11-2019 9.4 (14:30) 4.2 (00:00) 6.8 12.5 (15:40) 5.83 (15:10) 3 0 2.7 0.3 0
13-11-2019 16.5 (15:20) 7.4 (00:00) 12 17.78 (08:00) 6.67 (11:20) 3.2 0.7 2.3 0.2 0
12-11-2019 12 (16:40) 2.4 (00:00) 7.2 6.94 (15:00) 3.33 (16:00) 0 0 0 0 0
11-11-2019 10.4 (16:40) 2.2 (02:50) 6.3 5.28 (12:00) 2.78 (11:20) 0.1 0 0.1 0 0

Gráficas

Temp. máximas Temp. mínimas Temp. medias Precipitaciones Rachas de viento máximas Velocidades máximas media en intervalos de 10 minutos

Datos horarios

Fecha y hora oficial Temperatura (ºC) Velocidad del viento (km/h) Dirección del viento Racha (km/h) Dirección de racha Precipitación (mm) Presión (hPa) Tendencia (hPa) Humedad (%)
2019-12-10 23:00:00 3.4 0 Calma 3 Sudeste 0 944.3 -0.5 89
2019-12-10 22:00:00 3.4 0 Calma 3 Oeste 0 944.8 -0.3 88
2019-12-10 21:00:00 5.1 0 Calma 4 Sur 0 945 0.2 85
2019-12-10 20:00:00 5.7 0 Calma -- -- 0 944.8 -0.2 80
2019-12-10 19:00:00 6.6 0 Calma 7 Norte 0 945.1 -0.2 76
2019-12-10 18:00:00 7.8 0 Calma 8 Noroeste 0 944.8 -1.2 68
2019-12-10 17:00:00 9.8 0 Calma 7 Noroeste 0 945 -1.8 56
2019-12-10 16:00:00 9.9 3 Noroeste 17 Noroeste 0 945.3 -1.9 59
2019-12-10 15:00:00 8.7 7 Noroeste 16 Noroeste 0 946 -2.2 65
2019-12-10 14:00:00 7.4 0 Calma 11 Noroeste 0 946.8 -1.1 86
2019-12-10 13:00:00 3.5 0 Calma 8 Noroeste 0 947.2 -0.7 94
2019-12-10 12:00:00 3.2 0 Calma 7 Noroeste 0 948.2 0.3 94
2019-12-10 11:00:00 1.9 0 Calma 6 Noroeste 0 947.9 -0.6 93
2019-12-10 10:00:00 1.5 0 Calma 8 Norte 0 947.9 0 93
2019-12-10 09:00:00 1.9 4 Nordeste 10 Nordeste 0.1 947.9 0.1 93
2019-12-10 08:00:00 2.6 4 Norte 10 Noroeste 0 948.5 0.5 93
2019-12-10 07:00:00 2.7 0 Calma 4 Noroeste 0 947.9 -0.8 93
2019-12-10 06:00:00 3.2 3 Norte 11 Norte 0 947.8 -0.6 93
2019-12-10 05:00:00 4 3 Norte 14 Norte 0 948 -0.5 93
2019-12-10 04:00:00 4.2 3 Norte 13 Norte 0 948.7 -0.2 93
2019-12-10 03:00:00 4.5 4 Norte 8 Norte 0 948.4 -0.5 93
2019-12-10 02:00:00 4.6 0 Calma 4 Noroeste 0 948.5 -0.1 93
2019-12-10 01:00:00 4.3 0 Calma 7 Oeste 0 948.9 -0.1 92
2019-12-10 00:00:00 4.1 0 Calma 8 Nordeste 0 948.9 0.2 90
2019-12-09 23:00:00 5 5 Nordeste 9 Nordeste 0 948.6 0.3 89
2019-12-09 22:00:00 6.1 0 Calma 9 Norte 0 949 1.4 87
2019-12-09 21:00:00 6.6 6 Nordeste 11 Nordeste 0 948.7 2.1 86
2019-12-09 20:00:00 7.6 4 Nordeste 8 Nordeste 0 948.3 1.8 83
2019-12-09 19:00:00 9.2 0 Calma 8 Noroeste 0 947.6 1.3 77
2019-12-09 18:00:00 10.3 0 Calma 14 Noroeste 0 946.6 -0.1 72
2019-12-09 17:00:00 11.1 7 Noroeste 15 Norte 0 946.5 -1 62
2019-12-09 16:00:00 12 6 Norte 15 Noroeste 0 946.3 -1.6 54
2019-12-09 15:00:00 11.4 4 Noroeste 14 Noroeste 0 946.7 -2.2 63
2019-12-09 14:00:00 10.2 4 Noroeste 15 Noroeste 0 947.5 -1.2 71
2019-12-09 13:00:00 7.8 4 Noroeste 15 Noroeste 0 947.9 -0.5 81
2019-12-09 12:00:00 6.5 4 Noroeste 15 Noroeste 0 948.9 1 90
2019-12-09 11:00:00 6.2 4 Norte 10 Noroeste 0 948.7 1.6 94
2019-12-09 10:00:00 6.3 2 Norte 9 Norte 0 948.4 1.9 94
2019-12-09 09:00:00 6.2 4 Noroeste 13 Noroeste 0 947.9 1.7 94
2019-12-09 08:00:00 6.5 0 Calma 9 Noroeste 0 947.1 0.8 94
2019-12-09 07:00:00 6.7 0 Calma 9 Noroeste 0 946.5 0.1 94
2019-12-09 06:00:00 6.7 3 Norte 11 Norte 0 946.2 0.5 94
2019-12-09 05:00:00 6.7 6 Norte 14 Norte 0.1 946.3 1.1 94
2019-12-09 04:00:00 7.4 5 Norte 13 Noroeste 0 946.4 0.8 94
2019-12-09 03:00:00 7.5 3 Norte 16 Noroeste 0 945.7 0.1 94
2019-12-09 02:00:00 7.7 6 Noroeste 13 Noroeste 0 945.2 -0.2 94
2019-12-09 01:00:00 7.8 4 Noroeste 12 Norte 0 945.6 0.7 93
2019-12-09 00:00:00 7.6 0 Calma 7 Norte 0 945.6 0.5 92
2019-12-08 23:00:00 7.4 0 Calma 7 Noroeste 0.1 945.4 0.7 92
2019-12-08 22:00:00 7.4 0 Calma 6 Noroeste 0 944.9 0.5 92
2019-12-08 21:00:00 7.5 0 Calma 6 Sudoeste 0 945.1 1.3 92
2019-12-08 20:00:00 7.6 5 Sudoeste 7 Sudoeste 0.1 944.7 0.9 92
2019-12-08 19:00:00 7.9 0 Calma 0 Calma 0.2 944.4 0.2 93
2019-12-08 18:00:00 8 0 Calma 5 Noroeste 0 943.8 0.6 94
2019-12-08 17:00:00 7.6 3 Noroeste 7 Norte 0 943.8 -0.3 94
2019-12-08 16:00:00 7.6 0 Calma 5 Noroeste 0 944.2 -0.2 94
2019-12-08 15:00:00 7.2 0 Calma 5 Sudoeste 0 943.2 -1.9 94
2019-12-08 14:00:00 6.7 0 Calma 9 Sudoeste 0 944.1 -1.5 94
2019-12-08 13:00:00 6.4 3 Sudoeste 11 Sudoeste 0 944.4 -0.8 94
2019-12-08 12:00:00 5.3 4 Sudoeste 9 Sudoeste 0 945.1 0.3 94
2019-12-08 11:00:00 5.2 3 Sudoeste 9 Sudoeste 0 945.6 1.4 94
2019-12-08 10:00:00 4.5 2 Sudoeste 9 Oeste 0.1 945.2 1.1 94
2019-12-08 09:00:00 4.4 0 Calma 8 Sudoeste 0 944.8 1 94
2019-12-08 08:00:00 4.6 4 Sudoeste 8 Oeste 0 944.2 0.4 94
2019-12-08 07:00:00 4.5 2 Sudoeste 6 Sudoeste 0 944.1 -0.1 94
2019-12-08 06:00:00 4.7 0 Calma 5 Sudoeste 0 943.8 -0.6 94
2019-12-08 05:00:00 4.2 0 Calma 7 Sudoeste 0 943.8 -0.6 94
2019-12-08 04:00:00 4.1 2 Oeste 6 Oeste 0 944.2 -0.3 94
2019-12-08 03:00:00 4.4 0 Calma 6 Sudoeste 0 944.4 -0.8 94
2019-12-08 02:00:00 3.8 3 Sudoeste 6 Sudoeste 0.1 944.4 -0.3 94
2019-12-08 01:00:00 4.1 0 Calma 5 Sur 0 944.5 0.3 94
2019-12-08 00:00:00 4.4 0 Calma 7 Sur 0 945.2 1.4 94
2019-12-07 23:00:00 4.6 4 Sudoeste 9 Sudoeste 0 944.7 1.4 94
2019-12-07 22:00:00 6.3 0 Calma 4 Oeste 0 944.2 1.5 91
2019-12-07 21:00:00 6.7 3 Oeste 6 Oeste 0 943.8 1.1 89
2019-12-07 20:00:00 7.6 0 Calma 10 Oeste 0 943.3 1.4 88
2019-12-07 19:00:00 9 2 Oeste 9 Noroeste 0 942.7 0.8 79
2019-12-07 18:00:00 10.9 0 Calma 7 Noroeste 0 942.7 1.1 73
2019-12-07 17:00:00 12.2 5 Noroeste 9 Noroeste 0 941.9 -0.2 62
2019-12-07 16:00:00 12.4 4 Noroeste 10 Noroeste 0 941.9 -0.5 60
2019-12-07 15:00:00 12.4 2 Norte 10 Noroeste 0 941.6 -1.9 59
2019-12-07 14:00:00 12.4 0 Calma 10 Sudoeste 0 942.1 -1.5 61
2019-12-07 13:00:00 11 0 Calma 4 Noroeste 0 942.4 -0.5 64
2019-12-07 12:00:00 9.6 0 Calma 5 Este 0 943.5 0.7 69
2019-12-07 11:00:00 7.7 0 Calma 7 Nordeste 0 943.6 1 87
2019-12-07 10:00:00 4.8 3 Nordeste 10 Nordeste 0 942.9 0.4 95
2019-12-07 09:00:00 2.9 4 Nordeste 9 Nordeste 0 942.8 0.1 95
2019-12-07 08:00:00 3.3 6 Nordeste 12 Nordeste 0 942.6 0.1 95
2019-12-07 07:00:00 4.1 3 Nordeste 11 Nordeste 0 942.5 0.5 95
2019-12-07 06:00:00 4.3 6 Norte 10 Norte 0 942.7 0.4 93
2019-12-07 05:00:00 4.7 2 Nordeste 5 Norte 0 942.5 0.4 93
2019-12-07 04:00:00 4.9 2 Nordeste 8 Este 0 942 -0.5 93
2019-12-07 03:00:00 5.2 6 Este 15 Este 0 942.3 0.2 93
2019-12-07 02:00:00 5.2 10 Este 17 Nordeste 0 942.1 0 92
2019-12-07 01:00:00 4.8 10 Nordeste 16 Nordeste 0 942.5 0.8 90
2019-12-07 00:00:00 5.5 6 Este 14 Nordeste 0 942.1 0.6 89
2019-12-06 23:00:00 5.8 4 Nordeste 12 Nordeste 0 942.1 0.8 88
2019-12-06 22:00:00 6.3 5 Nordeste 10 Este 0 941.7 0.6 84
2019-12-06 21:00:00 7.6 4 Nordeste 10 Este 0 941.5 0.7 78
2019-12-06 20:00:00 8.9 0 Calma 9 Este 0 941.3 0.8 74
2019-12-06 19:00:00 10.1 0 Calma 10 Este 0 941.1 0.9 72
2019-12-06 18:00:00 10.9 3 Este 10 Nordeste 0 940.8 0.4 69
2019-12-06 17:00:00 11.8 3 Este 14 Este 0 940.5 -0.6 63
2019-12-06 16:00:00 12.9 5 Sudeste 20 Sudeste 0 940.2 -1.1 58
2019-12-06 15:00:00 11 4 Sudeste 14 Sudeste 0 940.4 -1.5 67
2019-12-06 14:00:00 10.8 4 Sudeste 19 Sur 0 941.1 -1 66
2019-12-06 13:00:00 11.2 6 Sudeste 23 Sudeste 0 941.3 -0.9 62
2019-12-06 12:00:00 10.8 5 Sudeste 20 Sur 0 941.9 0.3 66
2019-12-06 11:00:00 10.3 6 Sudeste 22 Sudeste 0 942.1 1.1 72
2019-12-06 10:00:00 7.2 5 Este 11 Este 0 942.2 1.4 86
2019-12-06 09:00:00 4.6 4 Nordeste 10 Nordeste 0 941.6 1.4 90
2019-12-06 08:00:00 4.8 5 Nordeste 9 Nordeste 0 941 1 86
2019-12-06 07:00:00 6.7 2 Este 12 Este 0 940.8 0.8 86
2019-12-06 06:00:00 6 3 Este 9 Nordeste 0 940.2 0.2 90
2019-12-06 05:00:00 6.1 0 Calma 5 Nordeste 0 940 0.1 90
2019-12-06 04:00:00 6.8 2 Nordeste 9 Nordeste 0 940 -0.2 89
2019-12-06 03:00:00 7.2 3 Este 8 Nordeste 0 940 -0.4 87
2019-12-06 02:00:00 7.6 5 Este 9 Este 0 939.9 -0.1 84
2019-12-06 01:00:00 8.9 3 Sudeste 15 Sudeste 0 940.2 0.9 79
2019-12-06 00:00:00 9.1 4 Este 15 Este 0 940.4 1.4 79
2019-12-05 23:00:00 9.1 0 Calma 11 Sudeste 0 940 1.4 77
2019-12-05 22:00:00 9.1 3 Sudeste 12 Este 0 939.3 1.1 76
2019-12-05 21:00:00 9.2 4 Sudeste 13 Sudeste 0 939 1.7 77
2019-12-05 20:00:00 9.2 3 Este 10 Este 0 938.6 2 79
2019-12-05 19:00:00 9.1 5 Este 11 Este 0 938.2 2.2 78
2019-12-05 18:00:00 10.2 2 Este 17 Este 0 937.3 1.6 69
2019-12-05 17:00:00 11.8 4 Sudeste 19 Este 0.1 936.6 0.4 61
2019-12-05 16:00:00 12.3 6 Este 23 Sudeste 0 936 -0.3 58
2019-12-05 15:00:00 13.6 7 Sudeste 21 Sudeste 0 935.7 -0.4 52
2019-12-05 14:00:00 11.4 3 Este 19 Este 0 936.2 -0.2 59
2019-12-05 13:00:00 11.1 8 Este 21 Este 0 936.3 0.9 60
2019-12-05 12:00:00 10.5 11 Este 23 Nordeste 0 936.1 1.8 62
2019-12-05 11:00:00 8.1 15 Nordeste 27 Nordeste 0 936.4 2.5 71
2019-12-05 10:00:00 6 10 Nordeste 19 Nordeste 0 935.4 2.4 82
2019-12-05 09:00:00 5 10 Nordeste 17 Nordeste 0 934.3 1.8 84
2019-12-05 08:00:00 4.9 9 Nordeste 15 Nordeste 0 933.9 1.8 81
2019-12-05 07:00:00 6.4 10 Nordeste 17 Nordeste 0 933 0.5 79
2019-12-05 06:00:00 6.9 6 Nordeste 12 Nordeste 0.2 932.5 0.8 80
2019-12-05 05:00:00 6.9 5 Nordeste 13 Nordeste 0 932.1 1 78
2019-12-05 04:00:00 7.4 7 Nordeste 15 Nordeste 0 932.5 1.7 76
2019-12-05 03:00:00 7.5 8 Nordeste 13 Nordeste 0 931.7 1.4 77
2019-12-05 02:00:00 7.3 7 Nordeste 14 Nordeste 0 931.1 1.1 81
2019-12-05 01:00:00 7.5 7 Nordeste 17 Nordeste 0 930.8 0.9 80
2019-12-05 00:00:00 7.8 5 Nordeste 10 Nordeste 0 930.3 0.8 81
2019-12-04 23:00:00 7.6 5 Nordeste 21 Nordeste 0 930 1.1 82
2019-12-04 22:00:00 7.7 9 Nordeste 16 Nordeste 0 929.9 2.1 79
2019-12-04 21:00:00 7.2 4 Nordeste 11 Nordeste 0 929.5 1.7 80
2019-12-04 20:00:00 7.5 5 Nordeste 15 Nordeste 0 928.9 1.8 79
2019-12-04 19:00:00 8 9 Nordeste 25 Nordeste 0 927.8 0.8 74
2019-12-04 18:00:00 8.7 9 Nordeste 25 Nordeste 0 927.8 1.1 71
2019-12-04 17:00:00 9.2 12 Nordeste 21 Nordeste 0 927.1 -0.2 75
2019-12-04 16:00:00 9.4 0 Calma 18 Norte 0 927 -0.3 81
2019-12-04 15:00:00 9.1 10 Norte 23 Norte 0 926.7 -1.6 79
2019-12-04 14:00:00 8.6 10 Norte 24 Nordeste 0.1 927.3 -1.2 85
2019-12-04 13:00:00 7.6 12 Norte 22 Norte 0 927.3 -1.7 88
2019-12-04 12:00:00 7.1 10 Nordeste 23 Norte 1 928.3 -0.6 92
2019-12-04 11:00:00 6.9 12 Norte 21 Norte 1.1 928.5 -0.4 92
2019-12-04 10:00:00 6.6 7 Norte 17 Nordeste 0.3 929 -0.1 92
2019-12-04 09:00:00 6.2 9 Norte 16 Norte 0.1 928.9 0 92
2019-12-04 08:00:00 5.9 4 Norte 14 Nordeste 0.2 928.9 -0.7 91
2019-12-04 07:00:00 5.9 7 Nordeste 16 Nordeste 0.8 929.1 -1 90
2019-12-04 06:00:00 6.4 7 Nordeste 18 Nordeste 0.1 928.9 -1.9 89
2019-12-04 05:00:00 6.5 10 Nordeste 18 Nordeste 0.1 929.6 -1.8 91
2019-12-04 04:00:00 6.5 8 Nordeste 17 Nordeste 1.5 930.1 -2.4 92
2019-12-04 03:00:00 6.8 7 Nordeste 13 Nordeste 0.2 930.8 -2.5 91
2019-12-04 02:00:00 7 5 Nordeste 11 Norte 0 931.4 -1.7 89
2019-12-04 01:00:00 6.9 4 Nordeste 7 Nordeste 0 932.5 -0.6 88
2019-12-04 00:00:00 6.9 4 Nordeste 9 Este 0 933.3 0 85
2019-12-03 23:00:00 6.9 0 Calma 8 Sudeste 0 933.1 -0.2 81
2019-12-03 22:00:00 7.2 2 Sudeste 11 Sudeste 0 933.1 0.2 80
2019-12-03 21:00:00 7.4 0 Calma 10 Sudeste 0 933.3 0.7 77
2019-12-03 20:00:00 7.6 5 Sudeste 14 Sudeste 0 933.3 0.4 75
2019-12-03 19:00:00 7.8 5 Sur 11 Sudeste 0 932.9 0.6 74
2019-12-03 18:00:00 8.3 2 Sudeste 10 Sudeste 0 932.6 0.4 72
2019-12-03 17:00:00 8.8 2 Sudeste 10 Sudeste 0 932.9 0.4 70
2019-12-03 16:00:00 9.3 5 Sudeste 15 Sudeste 0 932.3 -0.9 67
2019-12-03 15:00:00 9.6 4 Este 16 Sudeste 0 932.2 -1.8 65
2019-12-03 14:00:00 9.9 4 Sudeste 21 Sudeste 0 932.5 -2.1 64
2019-12-03 13:00:00 10.7 7 Sudeste 27 Sudeste 0 933.2 -1.4 62
2019-12-03 12:00:00 10.1 5 Sudeste 23 Sudeste 0 934 -0.3 65
2019-12-03 11:00:00 9.1 5 Este 19 Este 0 934.6 0.2 66
2019-12-03 10:00:00 8 5 Este 15 Este 0 934.6 0.5 71
2019-12-03 09:00:00 5.2 7 Nordeste 13 Nordeste 0 934.3 0.1 80
2019-12-03 08:00:00 5.1 7 Nordeste 13 Nordeste 0 934.4 -0.2 81
2019-12-03 07:00:00 4.9 9 Nordeste 17 Nordeste 0 934.1 -0.4 82
2019-12-03 06:00:00 4.5 9 Nordeste 17 Nordeste 0 934.2 -1.1 83
2019-12-03 05:00:00 4.4 9 Nordeste 14 Nordeste 0 934.6 -0.9 84
2019-12-03 04:00:00 5.1 7 Nordeste 14 Nordeste 0 934.5 -1.3 80
2019-12-03 03:00:00 5 9 Nordeste 19 Nordeste 0 935.3 -0.7 80
2019-12-03 02:00:00 5.1 8 Nordeste 17 Nordeste 0.1 935.5 -0.8 84
2019-12-03 01:00:00 4.9 5 Nordeste 9 Nordeste 0 935.8 -0.5 83
2019-12-03 00:00:00 5.8 6 Este 11 Este 0 936 0.6 80
2019-12-02 23:00:00 6.7 5 Nordeste 12 Este 0 936.3 1.2 78
2019-12-02 22:00:00 7.7 7 Nordeste 14 Nordeste 0 936.3 1.9 72
2019-12-02 21:00:00 8.2 4 Nordeste 10 Nordeste 0 935.4 1.3 78
2019-12-02 20:00:00 8.7 4 Nordeste 13 Nordeste 0 935.1 1.1 75
2019-12-02 19:00:00 9.1 6 Nordeste 12 Este 0 934.4 0.9 75
2019-12-02 18:00:00 9.7 2 Nordeste 6 Este 0.1 934.1 0.6 71
2019-12-02 17:00:00 10.3 2 Sudeste 16 Este 0 934 0.2 65
2019-12-02 16:00:00 10.6 3 Este 17 Este 0 933.5 -0.3 66
2019-12-02 15:00:00 10.4 6 Este 19 Este 0 933.5 -0.6 69
2019-12-02 14:00:00 10 6 Este 21 Este 0 933.8 0.1 64
2019-12-02 13:00:00 8.7 7 Este 23 Este 0.2 933.8 0.1 72
2019-12-02 12:00:00 8.6 9 Este 21 Este 0 934.1 1.4 67
2019-12-02 11:00:00 8.2 8 Nordeste 19 Nordeste 0 933.7 1 75
2019-12-02 10:00:00 6.9 7 Este 18 Este 0 933.7 2 81
2019-12-02 09:00:00 6.9 7 Este 15 Nordeste 0.1 932.7 1.1 83
2019-12-02 08:00:00 6.9 7 Nordeste 13 Nordeste 0 932.7 1.4 88
2019-12-02 07:00:00 7.1 6 Nordeste 10 Nordeste 1.6 931.7 0.5 91
2019-12-02 06:00:00 7.4 4 Este 10 Este 0.6 931.6 0.4 90
2019-12-02 05:00:00 7.5 6 Este 13 Nordeste 0 931.3 0.3 90
2019-12-02 04:00:00 7.6 6 Nordeste 12 Este 0.2 931.2 0.5 90
2019-12-02 03:00:00 7.6 5 Nordeste 11 Nordeste 0.1 931.2 0.3 92
2019-12-02 02:00:00 7.6 5 Nordeste 8 Nordeste 1.1 931 0.2 91
2019-12-02 01:00:00 7.9 0 Calma 10 Sudeste 0.8 930.7 0 88
2019-12-02 00:00:00 7.9 0 Calma 12 Sur 0 930.9 0.6 86
2019-12-01 23:00:00 7.7 3 Sur 19 Sur 0 930.8 0.5 87
2019-12-01 22:00:00 8.3 6 Sur 15 Sudeste 0.1 930.7 0.5 86
2019-12-01 21:00:00 8.4 6 Sudeste 14 Sur 0.6 930.3 0.6 85
2019-12-01 20:00:00 8.6 4 Sudeste 15 Sudeste 0 930.3 0.8 82
2019-12-01 19:00:00 9.1 0 Calma 9 Sur 0 930.2 -0.2 78
2019-12-01 18:00:00 9.6 4 Sudoeste 12 Sudoeste 0 929.7 -0.8 71
2019-12-01 17:00:00 10.3 7 Sudoeste 18 Oeste 0 929.5 -2 68
2019-12-01 16:00:00 10.6 6 Sudoeste 24 Oeste 0 930.4 -1.5 64
2019-12-01 15:00:00 9.9 13 Sudoeste 20 Oeste 0 930.5 -2.2 63
2019-12-01 14:00:00 9.1 10 Sudoeste 20 Sudoeste 0 931.5 -1.7 72
2019-12-01 13:00:00 9 10 Sudoeste 18 Sudoeste 0 931.9 -1 77
2019-12-01 12:00:00 8.4 9 Sudoeste 19 Sudoeste 0.1 932.7 -0.2 81
2019-12-01 11:00:00 7.8 10 Sudoeste 18 Sudoeste 0 933.2 0.2 84
2019-12-01 10:00:00 7 8 Sudoeste 14 Sur 0 932.9 0.2 91
2019-12-01 09:00:00 6.5 4 Sur 8 Sur 0 932.9 0.1 90
2019-12-01 08:00:00 6 4 Sudoeste 7 Sudoeste 0 933 0 89
2019-12-01 07:00:00 6.1 4 Oeste 8 Oeste 0 932.7 -0.9 90
2019-12-01 06:00:00 6.9 0 Calma 9 Noroeste 0 932.8 -1.3 90
2019-12-01 05:00:00 7.4 0 Calma 10 Noroeste 0 933 -1 88
2019-12-01 04:00:00 8.4 4 Noroeste 11 Noroeste 0.1 933.6 -0.8 89
2019-12-01 03:00:00 8.4 0 Calma 13 Nordeste 0.3 934.1 -1 92
2019-12-01 02:00:00 8.2 6 Nordeste 17 Nordeste 1.5 934 -0.6 93
2019-12-01 01:00:00 8.8 5 Nordeste 17 Nordeste 0 934.4 -0.8 92
2019-12-01 00:00:00 9.7 11 Norte 38 Sudoeste 0 935.1 -0.3 85
2019-11-30 23:00:00 11.1 24 Sudoeste 37 Sudoeste 0 934.6 -1.3 81
2019-11-30 22:00:00 11 16 Sudoeste 27 Oeste 0 935.2 -1.2 81
2019-11-30 21:00:00 11.3 16 Sudoeste 26 Oeste 0 935.4 -1.2 79
2019-11-30 20:00:00 10.6 4 Sudoeste 21 Oeste 0 935.9 -1 77
2019-11-30 19:00:00 11.5 16 Sudoeste 26 Oeste 0 936.4 -0.5 69
2019-11-30 18:00:00 12.4 17 Oeste 30 Sudoeste 0 936.6 -0.8 66
2019-11-30 17:00:00 13.4 2 Oeste 28 Oeste 0 936.9 -1.5 63
2019-11-30 16:00:00 13.6 13 Sudoeste 28 Oeste 0 936.9 -2.3 70
2019-11-30 15:00:00 13.7 10 Sudoeste 28 Oeste 0 937.4 -2.6 70
2019-11-30 14:00:00 14.7 17 Oeste 29 Oeste 0 938.4 -1.9 64
2019-11-30 13:00:00 14.7 17 Oeste 27 Oeste 0 939.2 -1.1 66
2019-11-30 12:00:00 14.2 17 Sudoeste 27 Oeste 0 940 -0.3 73
2019-11-30 11:00:00 12.6 14 Sudoeste 19 Sudoeste 0 940.3 0.4 81
2019-11-30 10:00:00 11.6 6 Sudoeste 14 Sudoeste 0 940.3 -0.5 86
2019-11-30 09:00:00 10.5 6 Sudoeste 10 Sudoeste 0 940.3 -0.4 88
2019-11-30 08:00:00 11 3 Sur 8 Sudeste 0 939.9 -1 86
2019-11-30 07:00:00 11.1 2 Sudoeste 6 Sur 0 940.8 0.2 86
2019-11-30 06:00:00 11.2 0 Calma 4 Sur 0 940.7 -0.2 86
2019-11-30 05:00:00 11.3 0 Calma 6 Sudeste 0 940.9 -0.1 87
2019-11-30 04:00:00 11.3 2 Sur 9 Sudeste 0 940.6 -0.8 86
2019-11-30 03:00:00 11.5 0 Calma 8 Sudeste 0 940.9 -0.4 86
2019-11-30 02:00:00 11.6 3 Sur 7 Sudoeste 0 941 -0.3 85
2019-11-30 01:00:00 11.7 0 Calma 6 Sudoeste 0 941.4 -0.1 85
2019-11-30 00:00:00 11.6 0 Calma 5 Sur 0 941.3 -0.1 85
2019-11-29 23:00:00 11.8 3 Sudoeste 10 Oeste 0 941.3 0.2 85
2019-11-29 22:00:00 11.8 0 Calma 9 Sudoeste 0 941.5 0.2 87
2019-11-29 21:00:00 11.9 8 Sudoeste 14 Sudoeste 0 941.4 0.8 88
2019-11-29 20:00:00 12 10 Sudoeste 15 Sudoeste 0 941.1 0 88
2019-11-29 19:00:00 12.2 6 Sudoeste 19 Oeste 0 941.3 1.1 88
2019-11-29 18:00:00 12.3 13 Oeste 21 Oeste 0 940.6 0.1 88
2019-11-29 17:00:00 12.7 12 Oeste 26 Sudoeste 0.1 941.1 0.8 84
2019-11-29 16:00:00 12.9 15 Sudoeste 23 Oeste 0 940.2 -0.6 85
2019-11-29 15:00:00 12.7 13 Oeste 25 Oeste 0 940.5 -0.9 87
2019-11-29 14:00:00 12.1 14 Sudoeste 23 Oeste 0 940.3 -1.1 87
2019-11-29 13:00:00 12.3 17 Oeste 24 Oeste 0 940.8 0.4 85
2019-11-29 12:00:00 12 13 Sudoeste 21 Sudoeste 0 941.4 1.5 90
2019-11-29 11:00:00 11.2 12 Sudoeste 20 Oeste 0 941.4 1.6 92
2019-11-29 10:00:00 10.8 10 Sudoeste 18 Oeste 0 940.4 1 92
2019-11-29 09:00:00 10.3 12 Sudoeste 21 Oeste 0 939.9 0.6 89
2019-11-29 08:00:00 10.2 12 Sudoeste 19 Oeste 0 939.8 1.1 89
2019-11-29 07:00:00 9.9 8 Sudoeste 19 Oeste 0 939.4 0.8 88
2019-11-29 06:00:00 9.7 12 Sudoeste 20 Sudoeste 0 939.3 0.8 88
2019-11-29 05:00:00 9.3 11 Sudoeste 18 Sudoeste 0 938.7 0.5 88
2019-11-29 04:00:00 9.3 9 Sudoeste 16 Oeste 0 938.6 0.3 88
2019-11-29 03:00:00 9 5 Sudoeste 14 Sudoeste 0 938.5 0.4 88
2019-11-29 02:00:00 8.8 5 Sudoeste 17 Oeste 0 938.2 -0.5 88
2019-11-29 01:00:00 8.5 6 Sudoeste 16 Sudoeste 0 938.3 0.2 89
2019-11-29 00:00:00 9 13 Sudoeste 21 Oeste 0 938.1 0.2 87
2019-11-28 23:00:00 9.7 13 Sudoeste 22 Sudoeste 0 938.7 1.1 87
2019-11-28 22:00:00 9.8 17 Sudoeste 30 Oeste 0 938.1 0.7 87
2019-11-28 21:00:00 9.8 12 Sudoeste 22 Sudoeste 0 937.9 0.7 88
2019-11-28 20:00:00 10.1 14 Sudoeste 22 Oeste 0 937.6 0.7 89
2019-11-28 19:00:00 10.2 8 Sudoeste 21 Oeste 0.1 937.4 -0.1 89
2019-11-28 18:00:00 10.2 9 Sudoeste 22 Oeste 0 937.2 -0.2 87
2019-11-28 17:00:00 10.3 13 Sudoeste 27 Sudoeste 0.1 936.9 -0.8 87
2019-11-28 16:00:00 10.5 21 Sudoeste 30 Oeste 0 937.5 -1 81
2019-11-28 15:00:00 11.1 18 Sudoeste 28 Oeste 0 937.4 -1.2 77
2019-11-28 14:00:00 10.5 9 Sudoeste 17 Sudoeste 0 937.7 -1 81
2019-11-28 13:00:00 9.9 11 Sudoeste 20 Oeste 0 938.5 0.1 82
2019-11-28 12:00:00 9.4 10 Sudoeste 23 Sudoeste 0 938.6 0.5 82
2019-11-28 11:00:00 8.7 9 Sudoeste 15 Sudoeste 0 938.7 1.3 89
2019-11-28 10:00:00 6.5 3 Sur 10 Sur 0 938.4 1.4 94
2019-11-28 09:00:00 5.9 4 Sudoeste 9 Sur 0 938.1 1.8 94
2019-11-28 08:00:00 5 3 Sudoeste 6 Oeste 0 937.4 1.1 93
2019-11-28 07:00:00 4.9 0 Calma 3 Oeste 0 937 1 92
2019-11-28 06:00:00 5.1 2 Oeste 7 Sudoeste 0 936.3 0.2 92
2019-11-28 05:00:00 5.6 3 Sudoeste 9 Sudoeste 0 936.3 0.3 92
2019-11-28 04:00:00 5.7 3 Sudoeste 12 Sudoeste 0 936 0.2 92
2019-11-28 03:00:00 6.1 4 Sudoeste 12 Sudoeste 0 936.1 0.3 91
2019-11-28 02:00:00 6.4 3 Sur 10 Sudoeste 0 936 0.8 89
2019-11-28 01:00:00 6.8 4 Sudoeste 13 Sudoeste 0 935.8 0.9 88
2019-11-28 00:00:00 6.9 3 Sudoeste 15 Sudoeste 0 935.8 1.1 85
2019-11-27 23:00:00 7.8 9 Sudoeste 17 Sudoeste 0 935.2 1.1 80
2019-11-27 22:00:00 8.9 10 Oeste 50 Oeste 0.1 934.9 1.2 75
2019-11-27 21:00:00 9.1 9 Sudoeste 18 Sudoeste 0 934.7 1.2 72
2019-11-27 20:00:00 9.4 5 Oeste 13 Oeste 0 934.1 1.2 72
2019-11-27 19:00:00 9.8 2 Oeste 14 Oeste 0 933.7 0.6 69
2019-11-27 18:00:00 11.5 0 Calma 18 Sudoeste 0.1 933.5 0.6 61
2019-11-27 17:00:00 12.6 4 Norte 18 Norte 0 932.9 -0.7 56
2019-11-27 16:00:00 12.5 0 Calma 28 Sudoeste 0.1 933.1 -1 55
2019-11-27 15:00:00 12.3 4 Noroeste 22 Noroeste 0 932.9 -1.2 60
2019-11-27 14:00:00 11.8 8 Noroeste 23 Noroeste 0.1 933.6 -0.6 60
2019-11-27 06:00:00 10.7 16 Sudoeste 28 Sudoeste 0 931.1 -0.2 85
2019-11-27 05:00:00 10 10 Sudoeste 26 Sudoeste 0 931.1 -0.1 84
2019-11-27 04:00:00 10.9 8 Oeste 31 Sudoeste 0 930.7 -0.7 76
2019-11-27 03:00:00 11 16 Sudoeste 28 Sudoeste 0 931.3 -0.3 85
2019-11-27 02:00:00 11.3 14 Sudoeste 27 Sudoeste 0 931.2 -0.4 93
2019-11-27 01:00:00 11.4 11 Sudoeste 33 Sudoeste 0 931.4 -0.2 91
2019-11-27 00:00:00 11.9 23 Sudoeste 35 Sudoeste 0.1 931.6 -0.3 89
2019-11-26 23:00:00 12.6 18 Sudoeste 33 Oeste 0 931.6 0.3 83
2019-11-26 22:00:00 12.7 17 Sudoeste 36 Sudoeste 0 931.6 -0.2 85
2019-11-26 21:00:00 12.8 25 Sudoeste 40 Sudoeste 0.1 931.9 -0.4 85
2019-11-26 20:00:00 12.9 12 Sudoeste 24 Sudoeste 0 931.3 -0.6 88
2019-11-26 19:00:00 13.1 9 Sudoeste 22 Sudoeste 0.1 931.8 -0.9 91
2019-11-26 18:00:00 13 17 Sudoeste 31 Sudoeste 0 932.3 -0.9 92
2019-11-26 17:00:00 13.4 12 Sudoeste 29 Sudoeste 0 931.9 -2.4 89
2019-11-26 16:00:00 13.5 17 Sudoeste 33 Sudoeste 0 932.7 -2.1 82
2019-11-26 15:00:00 13.4 22 Sudoeste 33 Sudoeste 0 933.2 -2.3 81
2019-11-26 14:00:00 13.2 22 Sudoeste 30 Sudoeste 0 934.3 -1.3 83
2019-11-26 13:00:00 12.3 20 Sudoeste 29 Sudoeste 0 934.8 -0.8 89
2019-11-26 12:00:00 12.7 10 Sudoeste 24 Sudoeste 0 935.5 -0.3 83
2019-11-26 11:00:00 11.7 12 Sudoeste 24 Sudoeste 0 935.6 0.2 86
2019-11-26 10:00:00 11 8 Sudoeste 17 Sudoeste 0 935.6 0.9 89
2019-11-26 09:00:00 9.9 3 Sudoeste 8 Sudoeste 0 935.8 0.7 90
2019-11-26 08:00:00 9.7 5 Sudoeste 11 Sudoeste 0 935.4 -0.4 88
2019-11-26 07:00:00 10.4 4 Sudoeste 8 Sudoeste 0 934.7 -1.2 89
2019-11-26 06:00:00 10.6 0 Calma 12 Sudoeste 0 935.1 -1.1 90
2019-11-26 05:00:00 10.6 5 Sudoeste 11 Sudoeste 0 935.8 -0.4 90
2019-11-26 04:00:00 10.8 5 Sudoeste 10 Sudoeste 0 935.9 -0.8 90
2019-11-26 03:00:00 10.9 3 Oeste 14 Sudoeste 0 936.2 -0.5 91
2019-11-26 02:00:00 10.8 3 Oeste 12 Sudoeste 0 936.2 -0.6 91
2019-11-26 01:00:00 10.8 5 Sudoeste 10 Sudoeste 0 936.7 -0.1 91
2019-11-26 00:00:00 11 4 Sudoeste 12 Sudoeste 0 936.7 0.4 90
2019-11-25 23:00:00 10.9 4 Oeste 12 Sudoeste 0 936.8 0.6 88
2019-11-25 22:00:00 11.2 3 Sudoeste 8 Sudoeste 0 936.8 0.6 86
2019-11-25 21:00:00 11.4 0 Calma 12 Noroeste 0 936.3 0.9 84
2019-11-25 20:00:00 11.7 4 Noroeste 13 Noroeste 0 936.2 1.4 81
2019-11-25 19:00:00 11.8 7 Noroeste 14 Noroeste 0 936.2 1.5 82
2019-11-25 18:00:00 13 5 Noroeste 14 Noroeste 0 935.4 0.8 77
2019-11-25 17:00:00 14.2 4 Norte 14 Noroeste 0 934.8 0.2 78
2019-11-25 16:00:00 14.3 3 Norte 28 Sudoeste 0 934.7 -0.1 78
2019-11-25 15:00:00 13.4 14 Oeste 32 Sudoeste 0.1 934.6 -0.8 85
2019-11-25 14:00:00 12.9 15 Sudoeste 26 Noroeste 0 934.6 -0.9 85
2019-11-25 13:00:00 12.3 13 Sudoeste 23 Sudoeste 0 934.8 -1 90
2019-11-25 12:00:00 11 10 Sudoeste 18 Sudoeste 0 935.4 -0.2 93
2019-11-25 11:00:00 10.3 12 Sudoeste 17 Sudoeste 0 935.5 0.5 94
2019-11-25 10:00:00 9.2 7 Sudoeste 15 Sudoeste 0 935.8 0.9 94
2019-11-25 09:00:00 8.8 12 Sudoeste 22 Sudoeste 0 935.6 1.1 94
2019-11-25 08:00:00 8.5 15 Sudoeste 26 Sudoeste 0 935 0.1 94
2019-11-25 07:00:00 8.3 18 Sudoeste 30 Sudoeste 0.1 934.9 -0.1 93
2019-11-25 06:00:00 8.4 16 Sudoeste 23 Sudoeste 0 934.5 -0.8 92
2019-11-25 05:00:00 8.1 11 Sudoeste 43 Sudoeste 0.1 934.9 -0.5 92
2019-11-25 04:00:00 7.8 16 Sudoeste 23 Sudoeste 0.1 935 -0.8 92
2019-11-25 03:00:00 8.1 12 Sudoeste 26 Sudoeste 0 935.3 -0.7 86
2019-11-25 02:00:00 7.9 14 Sudoeste 22 Sudoeste 0 935.4 -0.5 86
2019-11-25 01:00:00 7.4 11 Sudoeste 16 Sudoeste 0 935.8 -0.5 88
2019-11-25 00:00:00 6.7 8 Sudoeste 15 Sudoeste 0 936 -0.1 89
2019-11-24 23:00:00 6.2 6 Sudoeste 11 Sudoeste 0 935.9 0.4 86
2019-11-24 22:00:00 6.1 3 Sudoeste 9 Sudoeste 0 936.3 0.9 84
2019-11-24 21:00:00 6.1 3 Oeste 9 Noroeste 0 936.1 1.4 80
2019-11-24 20:00:00 6.6 0 Calma 8 Sudoeste 0 935.5 1.2 77
2019-11-24 19:00:00 7.4 0 Calma 8 Sudoeste 0 935.4 1.1 74
2019-11-24 18:00:00 8.7 4 Sudoeste 17 Noroeste 0 934.7 0.6 68
2019-11-24 17:00:00 9.5 9 Sudoeste 21 Sudoeste 0 934.3 -0.6 63
2019-11-24 16:00:00 10.8 4 Oeste 20 Sudoeste 0 934.3 -1.2 54
2019-11-24 15:00:00 10.7 7 Sudoeste 20 Noroeste 0 934.1 -2.2 51
2019-11-24 14:00:00 9.9 9 Noroeste 24 Noroeste 0 934.9 -1.1 53
2019-11-24 13:00:00 8.6 9 Noroeste 27 Noroeste 0 935.5 -0.2 59
2019-11-24 12:00:00 7.8 12 Noroeste 25 Noroeste 0 936.3 1.1 66
2019-11-24 11:00:00 6.6 0 Calma 12 Noroeste 0 936 1.4 76
2019-11-24 10:00:00 5 2 Oeste 13 Sudoeste 0 935.7 2.4 84
2019-11-24 09:00:00 3 3 Sudoeste 9 Noroeste 0 935.2 2.3 88
2019-11-24 08:00:00 2.5 0 Calma 15 Noroeste 0 934.6 1.8 87
2019-11-24 07:00:00 3.6 5 Noroeste 13 Noroeste 0 933.3 0.8 86
2019-11-24 06:00:00 3.7 7 Noroeste 22 Noroeste 0 932.9 0.9 86
2019-11-24 05:00:00 3.4 2 Noroeste 15 Noroeste 0 932.8 1.4 84
2019-11-24 04:00:00 4.3 7 Noroeste 23 Noroeste 0 932.5 0.9 82
2019-11-24 03:00:00 4.1 0 Calma 16 Noroeste 0 932 0.2 80
2019-11-24 02:00:00 4.6 10 Noroeste 25 Noroeste 0 931.4 0.2 76
2019-11-24 01:00:00 5 6 Noroeste 23 Noroeste 0 931.6 0.8 73
2019-11-24 00:00:00 5.1 0 Calma 22 Noroeste 0 931.8 1.9 72
2019-11-23 23:00:00 5.2 0 Calma 9 Noroeste 0 931.2 1.5 74
2019-11-23 22:00:00 5.2 2 Noroeste 12 Noroeste 0 930.8 2.2 71
2019-11-23 21:00:00 6.1 8 Noroeste 13 Noroeste 0 929.9 2.4 69
2019-11-23 20:00:00 6.9 5 Noroeste 19 Noroeste 0 929.7 3.3 64
2019-11-23 19:00:00 7.7 13 Noroeste 18 Noroeste 0 928.6 3 65
2019-11-23 18:00:00 8.6 8 Noroeste 35 Noroeste 0 927.5 2.4 54
2019-11-23 17:00:00 10.5 21 Noroeste 43 Noroeste 0 926.4 1.7 45
2019-11-23 16:00:00 10.7 14 Noroeste 41 Noroeste 0 925.6 1.1 43
2019-11-23 15:00:00 10.7 17 Noroeste 40 Noroeste 0 925.1 1.1 46
2019-11-23 14:00:00 11.2 14 Noroeste 85 Noroeste 0 924.7 1.2 43
2019-11-23 13:00:00 9.8 21 Noroeste 42 Noroeste 0 924.5 2.2 49
2019-11-23 12:00:00 8.8 23 Noroeste 46 Noroeste 0 924 3.5 56
2019-11-23 11:00:00 7.9 12 Noroeste 42 Noroeste 0 923.5 4.4 62
2019-11-23 10:00:00 6.8 7 Noroeste 30 Noroeste 0 922.3 4.2 65
2019-11-23 09:00:00 6 10 Noroeste 29 Noroeste 0 920.5 2.9 71
2019-11-23 08:00:00 6.4 8 Noroeste 26 Noroeste 0 919.1 2.3 71
2019-11-23 07:00:00 6.7 2 Oeste 27 Noroeste 0 918.1 1.6 71
2019-11-23 06:00:00 6.6 4 Noroeste 34 Noroeste 0 917.6 1.5 69
2019-11-23 05:00:00 7.2 11 Noroeste 38 Noroeste 0.1 916.8 0.9 71
2019-11-23 04:00:00 8 17 Noroeste 37 Noroeste 0 916.5 0.5 74
2019-11-23 03:00:00 7.7 6 Oeste 32 Sudoeste 0.7 916.1 -0.5 85
2019-11-23 02:00:00 8.4 8 Oeste 37 Sudoeste 0.1 915.9 -0.6 85
2019-11-23 01:00:00 9 19 Sudoeste 33 Oeste 0 916 -0.6 77
2019-11-23 00:00:00 9 12 Oeste 31 Sudoeste 0 916.6 0.6 78
2019-11-22 23:00:00 9.4 15 Sudoeste 23 Sudoeste 0 916.5 0.9 85
2019-11-22 22:00:00 8.9 13 Sudoeste 28 Sudoeste 0 916.6 1.6 79
2019-11-22 21:00:00 10.2 14 Oeste 34 Sudoeste 0 916 1 72
2019-11-22 20:00:00 10.7 22 Sudoeste 32 Sudoeste 0 915.6 1.1 86
2019-11-22 19:00:00 11.5 20 Sudoeste 30 Sudoeste 0 915 -0.1 86
2019-11-22 18:00:00 12.2 19 Sudoeste 38 Sudoeste 0 915 -1.3 89
2019-11-22 17:00:00 12.3 19 Sudoeste 41 Sudoeste 0.7 914.5 -3 90
2019-11-22 16:00:00 12 17 Sudoeste 34 Sudoeste 0.3 915.1 -4.1 90
2019-11-22 15:00:00 11.6 17 Sudoeste 33 Sudoeste 0.6 916.3 -4.9 90
2019-11-22 14:00:00 11.1 14 Sudoeste 38 Sudoeste 1.4 917.5 -5 90
2019-11-22 13:00:00 11 11 Sudoeste 28 Sudoeste 0.2 919.2 -4 86
2019-11-22 12:00:00 10.7 12 Sudoeste 27 Sudoeste 0 921.2 -2.3 84
2019-11-22 11:00:00 9.8 11 Sur 22 Sudoeste 0 922.5 -1.9 90
2019-11-22 10:00:00 8.9 6 Sur 18 Sudoeste 0.1 923.2 -1.8 94
2019-11-22 09:00:00 8.3 8 Sur 19 Sudeste 0.1 923.5 -1.7 94
2019-11-22 08:00:00 8.2 6 Sur 14 Sudoeste 0.1 924.4 -1.5 94
2019-11-22 07:00:00 8.1 5 Sudoeste 13 Sudoeste 0.5 925 -0.9 94
2019-11-22 06:00:00 7.7 6 Sur 13 Sur 0 925.2 -1.5 94
2019-11-22 05:00:00 7.4 6 Sur 14 Sudoeste 0 925.9 -0.9 94
2019-11-22 04:00:00 7.2 3 Sudoeste 12 Sudoeste 0 925.9 -1.5 94
2019-11-22 03:00:00 7.5 4 Sur 12 Sudoeste 0 926.7 -1.4 94
2019-11-22 02:00:00 7.5 0 Calma 11 Sudoeste 0.1 926.8 -1.5 94
2019-11-22 01:00:00 7.2 4 Sur 10 Sudoeste 0 927.4 -1 94
2019-11-22 00:00:00 7.2 2 Sudeste 6 Sudeste 0 928.1 0 94
2019-11-21 23:00:00 6.6 0 Calma 11 Sudoeste 0 928.3 0.2 94
2019-11-21 22:00:00 7.1 4 Sudoeste 10 Sudoeste 0 928.4 0.3 94
2019-11-21 21:00:00 7.4 3 Sudoeste 7 Sudoeste 0 928.1 0.4 92
2019-11-21 20:00:00 8.1 0 Calma 5 Sudoeste 0 928.1 0.4 92
2019-11-21 19:00:00 8.8 0 Calma 5 Sudoeste 0 928.1 0.9 92
2019-11-21 18:00:00 9.2 0 Calma 5 Noroeste 0.1 927.7 0 90
2019-11-21 17:00:00 9.6 0 Calma 6 Sudoeste 0.1 927.7 -0.2 90
2019-11-21 16:00:00 9.4 0 Calma 10 Sudoeste 1.9 927.2 -1.4 90
2019-11-21 15:00:00 9.3 5 Sudoeste 15 Sudoeste 0.6 927.7 -1.9 89
2019-11-21 14:00:00 9.3 8 Sudoeste 17 Sudoeste 0.2 927.9 -1.5 84
2019-11-21 13:00:00 9.1 7 Sudoeste 19 Sudoeste 0.1 928.6 -0.7 86
2019-11-21 12:00:00 8.7 9 Sudoeste 18 Sudoeste 0.1 929.6 0.5 87
2019-11-21 11:00:00 8.5 12 Sudoeste 21 Sudoeste 0 929.4 0.4 89
2019-11-21 10:00:00 7.6 13 Sudoeste 19 Sudoeste 0 929.3 0.9 92
2019-11-21 09:00:00 6.7 7 Sudoeste 13 Sudoeste 0 929.1 0.9 94
2019-11-21 08:00:00 -- -- -- -- -- -- -- -- --
2019-11-21 07:00:00 -- -- -- -- -- -- -- -- --
2019-11-21 06:00:00 -- -- -- -- -- -- -- -- --
2019-11-21 05:00:00 -- -- -- -- -- -- -- -- --
2019-11-21 04:00:00 -- -- -- -- -- -- -- -- --
2019-11-21 03:00:00 -- -- -- -- -- -- -- -- --
2019-11-21 02:00:00 -- -- -- -- -- -- -- -- --
2019-11-21 01:00:00 -- -- -- -- -- -- -- -- --
2019-11-21 00:00:00 -- -- -- -- -- -- -- -- --
2019-11-20 23:00:00 -- -- -- -- -- -- -- -- --
2019-11-20 22:00:00 -- -- -- -- -- -- -- -- --
2019-11-20 21:00:00 -- -- -- -- -- -- -- -- --
2019-11-20 20:00:00 -- -- -- -- -- -- -- -- --
2019-11-20 19:00:00 6.2 8 Sudoeste 18 Sudoeste 0 928.7 -0.3 90
2019-11-20 18:00:00 6.2 8 Sudoeste 20 Sudoeste 0.4 929 0 85
2019-11-20 17:00:00 6.5 7 Sudoeste 18 Sudoeste 0.4 929.1 -0.3 81
2019-11-20 16:00:00 6.7 11 Sudoeste 33 Sudoeste 0.1 929 -1.7 75
2019-11-20 15:00:00 8.8 12 Sudoeste 27 Sudoeste 0 929 -2 56
2019-11-20 14:00:00 9.4 11 Sudoeste 24 Sudoeste 0 929.4 -1.9 58
2019-11-20 13:00:00 9.4 10 Sudoeste 21 Sudoeste 0 930.7 -1 61
2019-11-20 12:00:00 8.9 7 Sudoeste 14 Sudoeste 0 931 -0.7 66
2019-11-20 11:00:00 6.6 8 Sudoeste 15 Sudoeste 0 931.3 -0.2 73
2019-11-20 10:00:00 4.8 4 Sur 12 Sudeste 0 931.7 -0.3 83
2019-11-20 09:00:00 3.8 5 Sur 12 Sudeste 0 931.7 -0.4 87
2019-11-20 08:00:00 2.8 5 Sudeste 11 Sudeste 0 931.5 -0.7 90
2019-11-20 07:00:00 2.5 3 Sudeste 10 Sudeste 0 932 -0.6 89
2019-11-20 06:00:00 3 3 Sudeste 9 Sudeste 0 932.1 -0.9 89
2019-11-20 05:00:00 3.3 4 Sudeste 9 Sudeste 0 932.2 -0.9 88
2019-11-20 04:00:00 3.7 3 Sudeste 7 Sudeste 0 932.6 -1.1 87
2019-11-20 03:00:00 4.2 3 Sur 7 Sudeste 0 933 -1 86
2019-11-20 02:00:00 4.2 2 Sudeste 9 Sudeste 0 933.1 -1.5 84
2019-11-20 01:00:00 4.6 0 Calma 4 Sudeste 0 933.7 -1 81
2019-11-20 00:00:00 5.1 0 Calma 5 Sudeste 0 934 -0.8 77
2019-11-19 23:00:00 5.2 0 Calma 6 Sudeste 0 934.6 -0.1 74
2019-11-19 22:00:00 6 0 Calma 5 Sudoeste 0 934.7 0.2 73
2019-11-19 21:00:00 6.5 0 Calma 7 Sudoeste 0 934.8 0.3 69
2019-11-19 20:00:00 7.1 0 Calma 6 Sudeste 0 934.7 0.3 65
2019-11-19 19:00:00 7.7 0 Calma 7 Sur 0 934.5 -0.2 61
2019-11-19 18:00:00 7.7 0 Calma 13 Sudoeste 0 934.5 -0.4 61
2019-11-19 17:00:00 8.6 8 Sudoeste 14 Sudoeste 0 934.4 -1.1 54
2019-11-19 16:00:00 9.6 3 Noroeste 16 Noroeste 0 934.7 -1.4 48
2019-11-19 15:00:00 9.8 5 Noroeste 17 Sudoeste 0 934.9 -2.2 47
2019-11-19 14:00:00 10 2 Noroeste 12 Sudoeste 0 935.5 -2.1 52
2019-11-19 13:00:00 8.4 3 Oeste 11 Sudoeste 0 936.1 -1.9 62
2019-11-19 12:00:00 6.7 4 Sudoeste 13 Sudoeste 0.2 937.1 -0.7 65
2019-11-19 11:00:00 4.7 6 Sudoeste 11 Sudoeste 0.5 937.6 0.3 72
2019-11-19 10:00:00 3.1 0 Calma 4 Sudoeste 0.5 938 1.1 84
2019-11-19 09:00:00 0.4 0 Calma 3 Nordeste 0 937.8 1 89
2019-11-19 08:00:00 -0.4 0 Calma 5 Nordeste 0 937.3 0.6 90
2019-11-19 07:00:00 -0.3 0 Calma 3 Nordeste 0 936.9 0 89
2019-11-19 06:00:00 -0.3 0 Calma 7 Noroeste 0 936.8 -0.1 88
2019-11-19 05:00:00 0.3 0 Calma 4 Nordeste 0 936.7 -0.2 87
2019-11-19 04:00:00 0.8 0 Calma 3 Noroeste 0 936.9 -0.4 86
2019-11-19 03:00:00 1 0 Calma 8 Noroeste 0 936.9 -0.2 83
2019-11-19 02:00:00 2 3 Nordeste 8 Nordeste 0 936.9 -0.1 79
2019-11-19 01:00:00 2.2 3 Nordeste 8 Nordeste 0 937.3 0.4 79
2019-11-19 00:00:00 2.6 0 Calma 7 Nordeste 0 937.1 1 76
2019-11-18 23:00:00 2.9 2 Oeste 11 Noroeste 0 937 1.3 74
2019-11-18 22:00:00 3.8 4 Noroeste 10 Noroeste 0 936.9 1.2 72
2019-11-18 21:00:00 4.6 2 Norte 10 Noroeste 0 936.1 1.3 67
2019-11-18 20:00:00 5.3 3 Norte 13 Noroeste 0 935.7 1 61
2019-11-18 19:00:00 6.7 5 Norte 18 Noroeste 0 935.7 1.8 60
2019-11-18 18:00:00 7.7 8 Nordeste 22 Nordeste 0 934.8 1.6 52
2019-11-18 17:00:00 9.1 12 Norte 33 Norte 0 934.7 1.7 46
2019-11-18 16:00:00 9.7 12 Norte 33 Nordeste 0 933.9 0.4 47
2019-11-18 15:00:00 10.7 13 Norte 33 Nordeste 0 933.2 -0.5 44
2019-11-18 14:00:00 10.4 15 Nordeste 35 Nordeste 0 933 -0.4 48
2019-11-18 13:00:00 9.2 18 Nordeste 31 Nordeste 0 933.5 0.1 48
2019-11-18 12:00:00 8.1 9 Norte 21 Nordeste 0 933.7 1.2 63
2019-11-18 11:00:00 6.2 6 Norte 18 Noroeste 0 933.4 1.9 72
2019-11-18 10:00:00 4.7 4 Norte 14 Noroeste 0 933.4 2.2 84
2019-11-18 09:00:00 2.8 7 Norte 18 Nordeste 0 932.5 2 87
2019-11-18 08:00:00 2.6 7 Norte 15 Norte 0 931.5 1.5 88
2019-11-18 07:00:00 2.3 2 Norte 8 Noroeste 0 931.2 1.4 88
2019-11-18 06:00:00 2.8 0 Calma 17 Noroeste 0 930.5 0.7 87
2019-11-18 05:00:00 3.3 9 Norte 21 Noroeste 0 930 0.5 87
2019-11-18 04:00:00 3.5 5 Nordeste 12 Nordeste 0 929.8 0.1 91
2019-11-18 03:00:00 3.8 0 Calma 9 Nordeste 0 929.8 0.5 92
2019-11-18 02:00:00 4.8 3 Norte 14 Noroeste 0 929.5 0.2 90
2019-11-18 01:00:00 5.8 10 Noroeste 16 Noroeste 0 929.7 -0.7 88
2019-11-18 00:00:00 6.6 4 Noroeste 12 Noroeste 0 929.3 -0.6 90
2019-11-17 23:00:00 6.8 2 Sudoeste 19 Norte 1.1 929.3 -1.1 90
2019-11-17 22:00:00 6.7 9 Nordeste 27 Sudoeste 3.7 930.4 -0.5 94
2019-11-17 21:00:00 7.2 15 Sudoeste 25 Sudoeste 2.1 929.9 -1.5 94
2019-11-17 20:00:00 7.1 14 Sudoeste 22 Sudoeste 1.9 930.4 -1.4 94
2019-11-17 19:00:00 7 9 Sudoeste 19 Sudoeste 0 930.9 -1.3 91
2019-11-17 18:00:00 7.2 13 Sudoeste 28 Sudoeste 0 931.4 -1.3 88
2019-11-17 17:00:00 6.9 18 Sudoeste 31 Sudoeste 0 931.8 -1.4 88
2019-11-17 16:00:00 6.4 18 Sudoeste 37 Sudoeste 0 932.2 -1.8 89
2019-11-17 15:00:00 6.3 24 Sudoeste 35 Sudoeste 0 932.7 -2.4 84
2019-11-17 14:00:00 6.6 19 Sudoeste 29 Sudoeste 0 933.2 -2.1 80
2019-11-17 13:00:00 5.8 16 Sudoeste 27 Sudoeste 0 934 -1.4 76
2019-11-17 12:00:00 5.5 16 Sudoeste 27 Sudoeste 0 935.1 -0.4 74
2019-11-17 11:00:00 4.5 15 Sudoeste 23 Sudoeste 0 935.3 0 80
2019-11-17 10:00:00 2.4 7 Sudoeste 14 Sudoeste 0 935.4 0.2 84
2019-11-17 09:00:00 0.9 4 Sudoeste 7 Sudoeste 0 935.5 0.2 86
2019-11-17 08:00:00 0.3 3 Sudoeste 10 Sudoeste 0 935.3 0.1 84
2019-11-17 07:00:00 0.9 3 Sur 8 Sudoeste 0 935.2 0.2 83
2019-11-17 06:00:00 0.7 6 Sudoeste 13 Sudoeste 0 935.3 0.2 82
2019-11-17 05:00:00 0.5 0 Calma 8 Sudoeste 0 935.2 -0.2 82
2019-11-17 04:00:00 0.3 0 Calma 7 Sudoeste 0 935 -1.1 82
2019-11-17 03:00:00 0.7 2 Sudoeste 10 Sudoeste 0 935.1 -0.7 80
2019-11-17 02:00:00 2.1 2 Norte 9 Nordeste 0 935.4 -0.5 76
2019-11-17 01:00:00 1.1 2 Sudoeste 5 Sudoeste 0 936.1 0.6 79
2019-11-17 00:00:00 1.8 0 Calma 11 Noroeste 0 935.8 0.1 76
2019-11-16 23:00:00 2.1 5 Sudoeste 9 Sudoeste 0 935.9 0.5 72
2019-11-16 22:00:00 3.6 5 Noroeste 14 Noroeste 0 935.5 0.6 62
2019-11-16 21:00:00 3.8 2 Oeste 9 Noroeste 0 935.7 0.9 61
2019-11-16 20:00:00 5.2 3 Oeste 10 Noroeste 0 935.4 0.9 54
2019-11-16 19:00:00 5.8 8 Noroeste 17 Noroeste 0 934.9 1 54
2019-11-16 18:00:00 7 9 Noroeste 20 Noroeste 0 934.8 1.5 48
2019-11-16 17:00:00 8.9 6 Norte 24 Noroeste 0 934.5 0.8 44
2019-11-16 16:00:00 9.3 8 Noroeste 23 Noroeste 0 933.9 0.1 45
2019-11-16 15:00:00 9.1 6 Noroeste 24 Noroeste 0 933.3 -0.4 49
2019-11-16 14:00:00 8.8 5 Norte 23 Noroeste 0 933.7 -0.4 51
2019-11-16 13:00:00 7.8 6 Norte 24 Noroeste 0 933.8 0.3 53
2019-11-16 12:00:00 7 8 Norte 22 Noroeste 0 933.7 1 56
2019-11-16 11:00:00 5.3 5 Norte 16 Nordeste 0 934.1 2.1 65
2019-11-16 10:00:00 3.3 4 Nordeste 12 Noroeste 0 933.5 1.9 78
2019-11-16 09:00:00 1.1 4 Noroeste 10 Noroeste 0 932.7 2.6 85
2019-11-16 08:00:00 1 2 Norte 13 Noroeste 0 932 2.3 85
2019-11-16 07:00:00 1 5 Noroeste 10 Noroeste 0 931.6 2.4 84
2019-11-16 06:00:00 1.7 5 Norte 11 Nordeste 0 930.1 1 83
2019-11-16 05:00:00 1.9 3 Norte 11 Noroeste 0 929.7 1.3 82
2019-11-16 04:00:00 2.1 2 Norte 9 Noroeste 0 929.2 0.9 80
2019-11-16 03:00:00 2.5 2 Norte 7 Noroeste 0 929.1 1.4 77
2019-11-16 02:00:00 3 3 Noroeste 8 Noroeste 0 928.4 1 74
2019-11-16 01:00:00 3.5 0 Calma 9 Noroeste 0 928.3 1.7 73
2019-11-16 00:00:00 4.4 3 Norte 14 Noroeste 0 927.7 1.3 69
2019-11-15 23:00:00 5.1 4 Noroeste 12 Noroeste 0 927.4 1.1 69
2019-11-15 22:00:00 5.1 2 Noroeste 9 Noroeste 0 926.6 0.9 70
2019-11-15 21:00:00 5.1 5 Noroeste 7 Noroeste 0 926.4 1.3 65
2019-11-15 20:00:00 5.5 4 Noroeste 10 Noroeste 0 926.3 1.3 64
2019-11-15 19:00:00 5.8 4 Noroeste 12 Noroeste 0 925.7 0.7 62
2019-11-15 18:00:00 6.3 5 Noroeste 19 Noroeste 0.1 925.1 0.1 57
2019-11-15 17:00:00 7.7 6 Norte 27 Noroeste 0.1 925 0.5 50
2019-11-15 16:00:00 8.3 8 Norte 29 Noroeste 0 925 0.3 52
2019-11-15 15:00:00 7.8 8 Norte 31 Noroeste 0 925 -0.2 54
2019-11-15 14:00:00 6.8 10 Noroeste 24 Noroeste 0 924.5 -1 57
2019-11-15 13:00:00 7 10 Noroeste 27 Noroeste 0 924.7 -0.6 61
2019-11-15 12:00:00 6.6 8 Noroeste 29 Noroeste 0 925.2 -0.4 62
2019-11-15 11:00:00 5.3 10 Noroeste 29 Noroeste 0.1 925.5 1.4 66
2019-11-15 10:00:00 4.8 7 Noroeste 22 Noroeste 0 925.3 1.6 74
2019-11-15 09:00:00 3.1 2 Norte 9 Noroeste 0.1 925.6 2.1 81
2019-11-15 08:00:00 2.8 5 Noroeste 15 Noroeste 0 924.1 0.6 80
2019-11-15 07:00:00 3.5 10 Noroeste 17 Noroeste 0 923.7 0.2 78
2019-11-15 06:00:00 4.4 0 Calma 18 Noroeste 0 923.5 -0.1 77
2019-11-15 05:00:00 4.7 8 Noroeste 19 Noroeste 0 923.5 0.2 73
2019-11-15 04:00:00 4.9 0 Calma 15 Noroeste 0 923.5 0.5 80
2019-11-15 03:00:00 4.7 5 Noroeste 15 Noroeste 0.1 923.6 1 78
2019-11-15 02:00:00 5.1 8 Noroeste 18 Noroeste 0 923.3 0.7 73
2019-11-15 01:00:00 5.5 3 Noroeste 22 Noroeste 0 923 0.7 72
2019-11-15 00:00:00 5.8 4 Norte 19 Noroeste 0 922.6 0.8 70
2019-11-14 23:00:00 6.3 3 Noroeste 32 Noroeste 0 922.6 1.2 71
2019-11-14 22:00:00 6.5 7 Noroeste 35 Noroeste 0 922.3 1.1 66
2019-11-14 21:00:00 6.1 0 Calma 27 Noroeste 0 921.8 0.9 68
2019-11-14 20:00:00 6.2 3 Noroeste 19 Noroeste 0 921.4 0.2 67
2019-11-14 19:00:00 6.8 7 Noroeste 30 Noroeste 0 921.2 0.1 58
2019-11-14 18:00:00 7.6 8 Noroeste 38 Noroeste 0 920.9 -1.3 50
2019-11-14 17:00:00 7.8 15 Noroeste 44 Noroeste 0 921.2 -1.7 49
2019-11-14 16:00:00 8.6 13 Noroeste 45 Noroeste 0 921.1 -2.4 49
2019-11-14 15:00:00 8.6 20 Noroeste 35 Noroeste 0.1 922.2 -2.5 55
2019-11-14 14:00:00 6.9 8 Norte 25 Noroeste 0 922.9 -2.6 79
2019-11-14 13:00:00 5.9 0 Calma 18 Sudoeste 0.2 923.5 -1.6 84
2019-11-14 12:00:00 4.8 0 Calma 17 Nordeste 0 924.7 0.8 85
2019-11-14 11:00:00 4.6 9 Norte 31 Nordeste 0.5 925.5 0.9 88
2019-11-14 10:00:00 4.4 8 Norte 39 Noroeste 2.2 925.1 0.2 87
2019-11-14 09:00:00 7.6 18 Sudoeste 34 Sudoeste 0 923.9 -2 81
2019-11-14 08:00:00 7.3 18 Sudoeste 28 Sudoeste 0 924.6 -2.1 79
2019-11-14 07:00:00 7.3 14 Oeste 35 Sudoeste 0 924.9 -2.5 77
2019-11-14 06:00:00 7.6 10 Oeste 28 Sudoeste 0 925.9 -1.9 78
2019-11-14 05:00:00 8.3 14 Sudoeste 23 Sudoeste 0 926.7 -2.4 80
2019-11-14 04:00:00 8.3 4 Sudoeste 23 Sudoeste 0 927.4 -2.2 91
2019-11-14 03:00:00 8.4 10 Sudoeste 24 Sudoeste 0 927.8 -2.8 92
2019-11-14 02:00:00 8.7 10 Sudoeste 24 Sudoeste 0 929.1 -1.9 91
2019-11-14 01:00:00 8.9 7 Sudoeste 19 Sudoeste 0 929.6 -1.9 89
2019-11-14 00:00:00 8.8 13 Sudoeste 19 Sudoeste 0 930.6 -1 84
2019-11-13 23:00:00 9 8 Sudoeste 16 Sudoeste 0 931 -1.7 81
2019-11-13 22:00:00 9.6 3 Oeste 12 Sudoeste 0 931.5 -0.7 75
2019-11-13 21:00:00 11 4 Sudoeste 6 Sudoeste 0 931.6 0.2 69
2019-11-13 20:00:00 12 0 Calma 6 Noroeste 0 932.7 1.1 64
2019-11-13 19:00:00 12.5 3 Sudoeste 5 Noroeste 0 932.2 0.4 61
2019-11-13 18:00:00 13.8 2 Noroeste 8 Noroeste 0 931.4 0.3 52
2019-11-13 17:00:00 15.6 4 Norte 18 Noroeste 0 931.6 0.7 48
2019-11-13 16:00:00 15.6 6 Norte 17 Nordeste 0 931.8 0.5 46
2019-11-13 15:00:00 15.7 6 Norte 24 Nordeste 0 931.1 0.3 46
2019-11-13 14:00:00 15.3 6 Norte 27 Nordeste 0 930.9 1.1 47
2019-11-13 13:00:00 14.3 13 Nordeste 39 Noroeste 0.2 931.3 2 57
2019-11-13 12:00:00 14.6 12 Norte 50 Noroeste 0 930.8 2.8 72
2019-11-13 11:00:00 13 19 Noroeste 42 Noroeste 0 929.8 1.7 80
2019-11-13 10:00:00 11.7 3 Norte 23 Noroeste 0.2 929.3 2.1 90
2019-11-13 09:00:00 10.7 3 Noroeste 24 Noroeste 1.4 928 0.7 93
2019-11-13 08:00:00 10.6 7 Noroeste 64 Noroeste 0.6 928.1 0.7 87
2019-11-13 07:00:00 10.5 4 Noroeste 24 Noroeste 0.1 927.2 -1 86
2019-11-13 06:00:00 10.3 0 Calma 26 Sur 0 927.3 -1.3 88
2019-11-13 05:00:00 9.9 6 Oeste 27 Sudoeste 0.3 927.4 -2.1 92
2019-11-13 04:00:00 8.5 12 Sudoeste 24 Sudoeste 0.2 928.2 -1.9 91
2019-11-13 03:00:00 7.7 16 Sudoeste 28 Sudoeste 0.2 928.6 -2.5 86
2019-11-13 02:00:00 7.6 16 Sudoeste 23 Sudoeste 0 929.5 -2.3 80
2019-11-13 01:00:00 7.8 12 Sudoeste 22 Sudoeste 0 930.1 -2.3 79
2019-11-13 00:00:00 8.1 11 Sudoeste 18 Sudoeste 0 931.1 -2.1 76
2019-11-12 23:00:00 8.1 9 Sudoeste 17 Sudoeste 0 931.8 -1 76
2019-11-12 22:00:00 8.1 0 Calma 12 Sudoeste 0 932.4 -0.4 75
2019-11-12 21:00:00 8 0 Calma 10 Noroeste 0 933.2 -0.1 71
2019-11-12 20:00:00 7.7 3 Oeste 17 Noroeste 0 932.8 -0.3 56
2019-11-12 19:00:00 8.9 10 Noroeste 15 Noroeste 0 932.8 -0.6 48
2019-11-12 18:00:00 10.2 0 Calma 23 Noroeste 0 933.3 -0.6 46
2019-11-12 17:00:00 11.3 10 Noroeste 21 Noroeste 0 933.1 -0.8 43
2019-11-12 16:00:00 11.5 12 Noroeste 24 Noroeste 0 933.4 -1.5 43
2019-11-12 15:00:00 11 11 Noroeste 25 Noroeste 0 933.9 -1.6 46
2019-11-12 14:00:00 11.4 6 Norte 20 Noroeste 0 933.9 -1.8 42
2019-11-12 13:00:00 10.7 6 Norte 14 Nordeste 0 934.9 -1.2 46
2019-11-12 12:00:00 9.3 6 Nordeste 16 Norte 0 935.5 -0.9 55
2019-11-12 11:00:00 7.4 3 Norte 10 Norte 0 935.7 0.6 66
2019-11-12 10:00:00 4.9 0 Calma 8 Noroeste 0 936.1 1.1 81
2019-11-12 09:00:00 3.8 4 Nordeste 8 Nordeste 0 936.4 0.6 84
2019-11-12 08:00:00 3 0 Calma 6 Noroeste 0 935.1 -0.5 84
2019-11-12 07:00:00 3.4 2 Nordeste 9 Norte 0 935 -1 83
2019-11-12 06:00:00 3.6 6 Nordeste 10 Nordeste 0 935.8 -0.5 83
2019-11-12 05:00:00 3.8 4 Nordeste 9 Noroeste 0 935.6 -0.6 85
2019-11-12 04:00:00 2.9 6 Noroeste 11 Noroeste 0 936 -0.8 90
2019-11-12 03:00:00 2.9 2 Noroeste 8 Nordeste 0 936.3 -0.1 94
2019-11-12 02:00:00 2.9 2 Norte 11 Sudoeste 0 936.2 -0.8 94
2019-11-12 01:00:00 2.9 0 Calma 6 Noroeste 0 936.8 0.3 94
2019-11-12 00:00:00 4.4 0 Calma 6 Nordeste 0 936.4 0.3 94
2019-11-11 23:00:00 5.6 4 Nordeste 9 Noroeste 0 937 1 94
2019-11-11 22:00:00 7.1 2 Norte 6 Noroeste 0 936.5 1 91
2019-11-11 21:00:00 7.9 3 Nordeste 8 Noroeste 0 936.1 0.9 88
2019-11-11 20:00:00 9.1 6 Nordeste 14 Nordeste 0 936 1.1 85
2019-11-11 19:00:00 9.6 5 Nordeste 16 Norte 0 935.5 0.6 83
2019-11-11 18:00:00 10 5 Norte 15 Noroeste 0 935.2 0.2 75
2019-11-11 17:00:00 10.1 6 Noroeste 18 Noroeste 0 934.9 -0.5 69
2019-11-11 16:00:00 10.2 3 Noroeste 12 Noroeste 0 934.9 -0.8 66
2019-11-11 15:00:00 9.6 5 Noroeste 14 Noroeste 0 935 -1.3 69
2019-11-11 14:00:00 9 6 Noroeste 13 Noroeste 0 935.4 -1.2 71
2019-11-11 13:00:00 8.8 5 Noroeste 18 Noroeste 0 935.7 -1 72
2019-11-11 12:00:00 8.3 8 Noroeste 19 Noroeste 0 936.3 -0.7 78
2019-11-11 11:00:00 6.8 3 Noroeste 17 Noroeste 0 936.6 -0.4 83
2019-11-11 10:00:00 5.7 4 Noroeste 11 Noroeste 0.1 936.7 -0.1 85
2019-11-11 09:00:00 4.4 3 Nordeste 5 Nordeste 0 937 -0.1 87
2019-11-11 08:00:00 3.8 2 Nordeste 9 Nordeste 0 937 -0.4 88
2019-11-11 07:00:00 3.4 4 Nordeste 8 Nordeste 0 936.8 -0.1 88
2019-11-11 06:00:00 2.8 4 Nordeste 12 Noroeste 0 937.1 0 89
2019-11-11 05:00:00 2.6 6 Nordeste 14 Nordeste 0 937.4 -0.3 90
2019-11-11 04:00:00 2.6 7 Norte 14 Noroeste 0 936.9 -0.9 87
2019-11-11 03:00:00 2.8 7 Norte 15 Nordeste 0 937.1 -0.2 87
2019-11-11 02:00:00 2.9 5 Norte 9 Nordeste 0 937.7 0.2 85
2019-11-11 01:00:00 2.9 0 Calma 8 Norte 0 937.8 1 84
2019-11-11 00:00:00 3.6 4 Nordeste 10 Norte 0 937.3 0.3 84